createdAt,value
2023-04-16T00:00:03.620Z,544.09
2023-04-16T00:00:15.588Z,544.05
2023-04-16T00:00:26.585Z,544.15
2023-04-16T00:00:37.577Z,544.09
2023-04-16T00:00:48.629Z,544.16
2023-04-16T00:01:00.605Z,544.09
2023-04-16T00:01:12.592Z,544.13
2023-04-16T00:01:23.587Z,544.12
2023-04-16T00:01:34.575Z,544.13
2023-04-16T00:01:45.620Z,544.09
2023-04-16T00:01:57.646Z,544.06
2023-04-16T00:02:08.708Z,544.10
2023-04-16T00:02:20.726Z,544.19
2023-04-16T00:02:32.758Z,544.06
2023-04-16T00:02:44.675Z,544.15
2023-04-16T00:02:55.797Z,544.09
2023-04-16T00:03:06.775Z,544.16
2023-04-16T00:03:18.718Z,544.16
2023-04-16T00:03:29.837Z,544.15
2023-04-16T00:03:41.820Z,544.16
2023-04-16T00:03:52.756Z,544.13
2023-04-16T00:04:03.865Z,544.07
2023-04-16T00:04:15.653Z,544.09
2023-04-16T00:04:26.637Z,544.08
2023-04-16T00:04:37.715Z,544.11
2023-04-16T00:04:49.650Z,544.12
2023-04-16T00:05:00.687Z,544.04
2023-04-16T00:05:11.633Z,544.05
2023-04-16T00:05:23.607Z,544.04
2023-04-16T00:05:34.607Z,544.03
2023-04-16T00:05:45.594Z,544.09
2023-04-16T00:05:56.614Z,544.03
2023-04-16T00:06:07.604Z,544.06
2023-04-16T00:06:18.624Z,543.99
2023-04-16T00:06:30.562Z,544.08
2023-04-16T00:06:41.559Z,544.09
2023-04-16T00:06:52.565Z,544.15
2023-04-16T00:07:03.557Z,544.03
2023-04-16T00:07:14.585Z,544.01
2023-04-16T00:07:25.581Z,543.94
2023-04-16T00:07:36.585Z,543.85
2023-04-16T00:07:47.587Z,543.96
2023-04-16T00:07:58.590Z,543.87
2023-04-16T00:08:09.606Z,543.75
2023-04-16T00:08:20.591Z,543.83
2023-04-16T00:08:31.610Z,543.83
2023-04-16T00:08:42.606Z,543.95
2023-04-16T00:08:53.593Z,543.98
2023-04-16T00:09:04.573Z,543.97
2023-04-16T00:09:15.567Z,543.91
2023-04-16T00:09:26.572Z,543.85
2023-04-16T00:09:37.575Z,543.82
2023-04-16T00:09:48.580Z,543.82
2023-04-16T00:09:59.590Z,543.67
2023-04-16T00:10:10.575Z,543.67
2023-04-16T00:10:21.577Z,543.98
2023-04-16T00:10:32.566Z,543.97
2023-04-16T00:10:43.550Z,543.82
2023-04-16T00:10:54.557Z,543.79
2023-04-16T00:11:05.547Z,543.88
2023-04-16T00:11:16.667Z,543.94
2023-04-16T00:11:28.614Z,543.98
2023-04-16T00:11:39.579Z,543.83
2023-04-16T00:11:51.592Z,543.89
2023-04-16T00:12:02.573Z,543.87
2023-04-16T00:12:13.561Z,543.89
2023-04-16T00:12:24.552Z,543.82
2023-04-16T00:12:35.637Z,543.94
2023-04-16T00:12:47.604Z,543.90
2023-04-16T00:12:58.606Z,543.87
2023-04-16T00:13:09.608Z,543.86
2023-04-16T00:13:20.593Z,543.92
2023-04-16T00:13:31.590Z,543.91
2023-04-16T00:13:42.606Z,543.91
2023-04-16T00:13:53.595Z,543.85
2023-04-16T00:14:04.589Z,543.85
2023-04-16T00:14:15.627Z,543.80
2023-04-16T00:14:27.617Z,543.75
2023-04-16T00:14:39.584Z,543.66
2023-04-16T00:14:50.679Z,543.61
2023-04-16T00:15:01.565Z,543.90
2023-04-16T00:15:12.599Z,543.89
2023-04-16T00:15:24.569Z,543.98
2023-04-16T00:15:35.584Z,543.90
2023-04-16T00:15:46.600Z,543.89
2023-04-16T00:15:57.596Z,543.93
2023-04-16T00:16:09.612Z,543.71
2023-04-16T00:16:21.594Z,543.71
2023-04-16T00:16:32.669Z,543.61
2023-04-16T00:16:43.614Z,543.61
2023-04-16T00:16:54.588Z,543.56
2023-04-16T00:17:05.730Z,543.59
2023-04-16T00:17:16.570Z,543.60
2023-04-16T00:17:27.670Z,543.53
2023-04-16T00:17:38.592Z,543.51
2023-04-16T00:17:49.606Z,543.40
2023-04-16T00:18:01.685Z,543.58
2023-04-16T00:18:13.571Z,543.64
2023-04-16T00:18:24.596Z,543.77
2023-04-16T00:18:35.591Z,543.68
2023-04-16T00:18:46.584Z,543.64
2023-04-16T00:18:57.575Z,543.63
2023-04-16T00:19:08.820Z,543.51
2023-04-16T00:19:19.609Z,543.42
2023-04-16T00:19:30.590Z,543.57
2023-04-16T00:19:41.589Z,543.56
2023-04-16T00:19:52.582Z,543.57
2023-04-16T00:20:03.573Z,543.49
2023-04-16T00:20:14.547Z,543.56
2023-04-16T00:20:25.599Z,543.54
2023-04-16T00:20:36.613Z,543.44
2023-04-16T00:20:48.559Z,543.49
2023-04-16T00:20:59.563Z,543.60
2023-04-16T00:21:10.573Z,543.53
2023-04-16T00:21:21.581Z,543.55
2023-04-16T00:21:32.584Z,543.57
2023-04-16T00:21:43.573Z,543.52
2023-04-16T00:21:54.570Z,543.45
2023-04-16T00:22:05.576Z,543.52
2023-04-16T00:22:16.572Z,543.50
2023-04-16T00:22:27.586Z,543.48
2023-04-16T00:22:38.577Z,543.47
2023-04-16T00:22:49.569Z,543.37
2023-04-16T00:23:00.558Z,543.27
2023-04-16T00:23:11.556Z,543.30
2023-04-16T00:23:22.548Z,543.39
2023-04-16T00:23:33.544Z,543.49
2023-04-16T00:23:44.637Z,543.46
2023-04-16T00:23:56.606Z,543.50
2023-04-16T00:24:07.602Z,543.47
2023-04-16T00:24:18.589Z,543.62
2023-04-16T00:24:29.588Z,543.46
2023-04-16T00:24:40.584Z,543.43
2023-04-16T00:24:51.567Z,543.49
2023-04-16T00:25:02.606Z,543.52
2023-04-16T00:25:13.613Z,543.48
2023-04-16T00:25:24.601Z,543.48
2023-04-16T00:25:35.595Z,543.56
2023-04-16T00:25:46.593Z,543.48
2023-04-16T00:25:57.592Z,543.44
2023-04-16T00:26:08.585Z,543.67
2023-04-16T00:26:19.564Z,543.60
2023-04-16T00:26:30.594Z,543.53
2023-04-16T00:26:41.600Z,543.47
2023-04-16T00:26:52.590Z,543.69
2023-04-16T00:27:03.576Z,543.53
2023-04-16T00:27:14.581Z,543.60
2023-04-16T00:27:25.567Z,543.77
2023-04-16T00:27:36.571Z,543.61
2023-04-16T00:27:47.554Z,543.59
2023-04-16T00:27:58.549Z,543.81
2023-04-16T00:28:11.016Z,543.83
2023-04-16T00:28:21.592Z,543.64
2023-04-16T00:28:32.586Z,543.64
2023-04-16T00:28:43.574Z,543.53
2023-04-16T00:28:54.560Z,543.70
2023-04-16T00:29:05.564Z,543.70
2023-04-16T00:29:16.546Z,543.53
2023-04-16T00:29:27.574Z,543.66
2023-04-16T00:29:38.560Z,543.60
2023-04-16T00:29:49.564Z,543.56
2023-04-16T00:30:00.597Z,543.54
2023-04-16T00:30:12.577Z,543.62
2023-04-16T00:30:23.604Z,543.62
2023-04-16T00:30:34.586Z,543.59
2023-04-16T00:30:46.691Z,543.52
2023-04-16T00:30:57.616Z,543.45
2023-04-16T00:31:08.588Z,543.47
2023-04-16T00:31:19.604Z,543.50
2023-04-16T00:31:31.632Z,543.41
2023-04-16T00:31:42.573Z,543.37
2023-04-16T00:31:54.603Z,543.41
2023-04-16T00:32:05.588Z,543.42
2023-04-16T00:32:16.589Z,543.31
2023-04-16T00:32:27.604Z,543.33
2023-04-16T00:32:38.636Z,543.42
2023-04-16T00:32:50.624Z,543.40
2023-04-16T00:33:02.632Z,543.39
2023-04-16T00:33:13.531Z,543.43
2023-04-16T00:33:24.640Z,543.37
2023-04-16T00:33:36.599Z,543.37
2023-04-16T00:33:47.593Z,543.41
2023-04-16T00:33:58.585Z,543.42
2023-04-16T00:34:09.595Z,543.33
2023-04-16T00:34:21.583Z,543.37
2023-04-16T00:34:32.591Z,543.41
2023-04-16T00:34:43.587Z,543.38
2023-04-16T00:34:54.594Z,543.35
2023-04-16T00:35:05.585Z,543.35
2023-04-16T00:35:16.588Z,543.31
2023-04-16T00:35:27.607Z,543.23
2023-04-16T00:35:39.571Z,543.22
2023-04-16T00:35:50.576Z,543.24
2023-04-16T00:36:02.587Z,543.21
2023-04-16T00:36:13.569Z,543.11
2023-04-16T00:36:24.545Z,543.12
2023-04-16T00:36:35.545Z,543.09
2023-04-16T00:36:46.636Z,543.02
2023-04-16T00:36:58.607Z,543.06
2023-04-16T00:37:10.580Z,543.00
2023-04-16T00:37:21.604Z,543.04
2023-04-16T00:37:33.582Z,542.97
2023-04-16T00:37:44.574Z,543.04
2023-04-16T00:37:55.586Z,542.92
2023-04-16T00:38:06.584Z,542.98
2023-04-16T00:38:17.580Z,543.01
2023-04-16T00:38:28.570Z,543.03
2023-04-16T00:38:39.572Z,543.06
2023-04-16T00:38:50.597Z,543.00
2023-04-16T00:39:01.587Z,542.96
2023-04-16T00:39:12.632Z,542.94
2023-04-16T00:39:24.594Z,542.93
2023-04-16T00:39:35.604Z,542.90
2023-04-16T00:39:46.587Z,542.87
2023-04-16T00:39:57.583Z,543.00
2023-04-16T00:40:08.572Z,542.85
2023-04-16T00:40:19.562Z,542.86
2023-04-16T00:40:30.563Z,542.86
2023-04-16T00:40:41.577Z,542.83
2023-04-16T00:40:52.593Z,542.81
2023-04-16T00:41:03.627Z,542.80
2023-04-16T00:41:15.565Z,542.86
2023-04-16T00:41:26.577Z,542.94
2023-04-16T00:41:37.576Z,542.98
2023-04-16T00:41:48.575Z,542.87
2023-04-16T00:41:59.579Z,542.76
2023-04-16T00:42:10.579Z,542.86
2023-04-16T00:42:21.575Z,542.90
2023-04-16T00:42:32.548Z,542.91
2023-04-16T00:42:43.531Z,542.93
2023-04-16T00:42:55.169Z,542.83
2023-04-16T00:43:05.633Z,542.93
2023-04-16T00:43:16.598Z,542.93
2023-04-16T00:43:27.606Z,542.89
2023-04-16T00:43:38.569Z,542.91
2023-04-16T00:43:49.579Z,542.84
2023-04-16T00:44:00.601Z,542.91
2023-04-16T00:44:11.600Z,542.86
2023-04-16T00:44:22.574Z,542.84
2023-04-16T00:44:33.598Z,542.82
2023-04-16T00:44:44.603Z,542.82
2023-04-16T00:44:55.603Z,542.88
2023-04-16T00:45:07.585Z,542.92
2023-04-16T00:45:18.583Z,542.89
2023-04-16T00:45:29.584Z,542.86
2023-04-16T00:45:40.562Z,542.83
2023-04-16T00:45:51.572Z,542.80
2023-04-16T00:46:02.679Z,542.82
2023-04-16T00:46:13.671Z,542.85
2023-04-16T00:46:25.635Z,542.85
2023-04-16T00:46:36.596Z,542.89
2023-04-16T00:46:47.654Z,542.86
2023-04-16T00:46:58.621Z,542.85
2023-04-16T00:47:10.599Z,542.79
2023-04-16T00:47:21.726Z,542.78
2023-04-16T00:47:33.643Z,542.74
2023-04-16T00:47:45.708Z,542.70
2023-04-16T00:47:59.287Z,542.84
2023-04-16T00:48:08.606Z,543.00
2023-04-16T00:48:19.603Z,542.85
2023-04-16T00:48:30.619Z,542.84
2023-04-16T00:48:42.613Z,542.92
2023-04-16T00:48:54.594Z,543.03
2023-04-16T00:49:05.572Z,542.82
2023-04-16T00:49:16.582Z,542.88
2023-04-16T00:49:27.574Z,542.88
2023-04-16T00:49:38.597Z,542.85
2023-04-16T00:49:49.589Z,542.77
2023-04-16T00:50:00.599Z,542.80
2023-04-16T00:50:11.592Z,542.84
2023-04-16T00:50:22.546Z,542.86
2023-04-16T00:50:33.583Z,542.80
2023-04-16T00:50:44.588Z,542.83
2023-04-16T00:50:55.594Z,542.84
2023-04-16T00:51:06.619Z,542.79
2023-04-16T00:51:18.602Z,542.64
2023-04-16T00:51:29.602Z,542.62
2023-04-16T00:51:41.572Z,542.87
2023-04-16T00:51:52.577Z,542.79
2023-04-16T00:52:03.585Z,542.72
2023-04-16T00:52:14.560Z,542.69
2023-04-16T00:52:25.554Z,542.67
2023-04-16T00:52:36.641Z,542.64
2023-04-16T00:52:48.652Z,542.65
2023-04-16T00:53:00.625Z,542.60
2023-04-16T00:53:12.608Z,542.65
2023-04-16T00:53:24.596Z,542.68
2023-04-16T00:53:35.597Z,542.62
2023-04-16T00:53:46.604Z,542.59
2023-04-16T00:53:58.584Z,542.67
2023-04-16T00:54:09.570Z,542.64
2023-04-16T00:54:20.583Z,542.64
2023-04-16T00:54:31.569Z,542.58
2023-04-16T00:54:42.566Z,542.67
2023-04-16T00:54:53.557Z,542.66
2023-04-16T00:55:04.560Z,542.58
2023-04-16T00:55:15.553Z,542.55
2023-04-16T00:55:26.575Z,542.54
2023-04-16T00:55:37.585Z,542.48
2023-04-16T00:55:48.581Z,542.49
2023-04-16T00:55:59.580Z,542.52
2023-04-16T00:56:10.582Z,542.64
2023-04-16T00:56:22.287Z,542.58
2023-04-16T00:56:33.593Z,542.55
2023-04-16T00:56:44.602Z,542.46
2023-04-16T00:56:56.573Z,542.58
2023-04-16T00:57:07.599Z,542.53
2023-04-16T00:57:19.590Z,542.52
2023-04-16T00:57:30.579Z,542.51
2023-04-16T00:57:41.587Z,542.55
2023-04-16T00:57:52.580Z,542.55
2023-04-16T00:58:03.579Z,542.57
2023-04-16T00:58:14.582Z,542.54
2023-04-16T00:58:25.562Z,542.48
2023-04-16T00:58:36.583Z,542.46
2023-04-16T00:58:48.570Z,542.51
2023-04-16T00:58:59.565Z,542.59
2023-04-16T00:59:10.866Z,542.59
2023-04-16T00:59:21.597Z,542.50
2023-04-16T00:59:32.594Z,542.66
2023-04-16T00:59:43.571Z,542.58
2023-04-16T00:59:54.573Z,542.48
2023-04-16T01:00:05.571Z,542.70
2023-04-16T01:00:16.585Z,542.69
2023-04-16T01:00:27.592Z,542.73
2023-04-16T01:00:38.579Z,542.72
2023-04-16T01:00:49.578Z,542.68
2023-04-16T01:01:01.589Z,542.76
2023-04-16T01:01:12.679Z,542.77
2023-04-16T01:01:23.609Z,542.73
2023-04-16T01:01:34.745Z,542.75
2023-04-16T01:01:46.602Z,542.76
2023-04-16T01:01:57.681Z,542.85
2023-04-16T01:02:08.711Z,542.80
2023-04-16T01:02:19.618Z,542.80
2023-04-16T01:02:31.682Z,542.79
2023-04-16T01:02:43.687Z,542.74
2023-04-16T01:02:55.819Z,542.79
2023-04-16T01:03:07.732Z,542.76
2023-04-16T01:03:19.792Z,542.77
2023-04-16T01:03:31.866Z,542.83
2023-04-16T01:03:42.700Z,542.80
2023-04-16T01:03:54.701Z,542.84
2023-04-16T01:04:06.591Z,542.82
2023-04-16T01:04:17.618Z,542.85
2023-04-16T01:04:29.646Z,542.87
2023-04-16T01:04:41.623Z,542.87
2023-04-16T01:04:53.572Z,542.87
2023-04-16T01:05:04.605Z,542.87
2023-04-16T01:05:15.590Z,542.87
2023-04-16T01:05:27.580Z,542.79
2023-04-16T01:05:38.588Z,542.80
2023-04-16T01:05:49.581Z,542.80
2023-04-16T01:06:00.590Z,542.76
2023-04-16T01:06:11.568Z,542.70
2023-04-16T01:06:22.582Z,542.72
2023-04-16T01:06:33.592Z,542.65
2023-04-16T01:06:44.606Z,542.61
2023-04-16T01:06:55.588Z,542.58
2023-04-16T01:07:06.597Z,542.59
2023-04-16T01:07:17.601Z,542.67
2023-04-16T01:07:28.597Z,542.62
2023-04-16T01:07:39.586Z,542.59
2023-04-16T01:07:50.562Z,542.54
2023-04-16T01:08:01.576Z,542.54
2023-04-16T01:08:12.581Z,542.57
2023-04-16T01:08:23.586Z,542.44
2023-04-16T01:08:34.578Z,542.42
2023-04-16T01:08:45.594Z,542.51
2023-04-16T01:08:56.568Z,542.48
2023-04-16T01:09:08.069Z,542.40
2023-04-16T01:09:19.591Z,542.30
2023-04-16T01:09:30.660Z,542.31
2023-04-16T01:09:42.602Z,542.22
2023-04-16T01:09:53.595Z,542.20
2023-04-16T01:10:04.575Z,542.24
2023-04-16T01:10:15.571Z,542.21
2023-04-16T01:10:26.580Z,542.22
2023-04-16T01:10:37.586Z,542.27
2023-04-16T01:10:48.597Z,542.19
2023-04-16T01:10:59.593Z,542.16
2023-04-16T01:11:11.610Z,542.19
2023-04-16T01:11:22.601Z,542.10
2023-04-16T01:11:33.607Z,542.00
2023-04-16T01:11:44.612Z,541.97
2023-04-16T01:11:55.605Z,542.04
2023-04-16T01:12:07.585Z,542.05
2023-04-16T01:12:19.590Z,541.92
2023-04-16T01:12:30.628Z,541.94
2023-04-16T01:12:42.601Z,541.85
2023-04-16T01:12:53.609Z,541.90
2023-04-16T01:13:05.575Z,541.87
2023-04-16T01:13:16.598Z,541.80
2023-04-16T01:13:27.591Z,541.84
2023-04-16T01:13:38.597Z,541.90
2023-04-16T01:13:49.598Z,541.88
2023-04-16T01:14:00.630Z,541.89
2023-04-16T01:14:12.603Z,541.88
2023-04-16T01:14:23.589Z,541.84
2023-04-16T01:14:34.606Z,541.78
2023-04-16T01:14:46.577Z,541.83
2023-04-16T01:14:57.577Z,541.81
2023-04-16T01:15:08.565Z,541.87
2023-04-16T01:15:19.575Z,541.80
2023-04-16T01:15:30.619Z,541.79
2023-04-16T01:15:42.612Z,541.85
2023-04-16T01:15:53.645Z,541.84
2023-04-16T01:16:05.626Z,541.91
2023-04-16T01:16:17.610Z,541.90
2023-04-16T01:16:29.658Z,541.79
2023-04-16T01:16:40.596Z,541.79
2023-04-16T01:16:51.597Z,541.71
2023-04-16T01:17:02.599Z,541.69
2023-04-16T01:17:13.577Z,541.71
2023-04-16T01:17:24.618Z,541.71
2023-04-16T01:17:36.581Z,541.69
2023-04-16T01:17:48.612Z,541.66
2023-04-16T01:17:59.605Z,541.75
2023-04-16T01:18:11.579Z,541.75
2023-04-16T01:18:23.588Z,541.71
2023-04-16T01:18:34.585Z,541.66
2023-04-16T01:18:45.584Z,541.65
2023-04-16T01:18:56.584Z,541.65
2023-04-16T01:19:07.897Z,541.66
2023-04-16T01:19:19.595Z,541.68
2023-04-16T01:19:30.583Z,541.61
2023-04-16T01:19:41.584Z,541.56
2023-04-16T01:19:52.622Z,541.54
2023-04-16T01:20:04.594Z,541.54
2023-04-16T01:20:15.582Z,541.56
2023-04-16T01:20:26.598Z,541.59
2023-04-16T01:20:37.602Z,541.58
2023-04-16T01:20:48.616Z,541.49
2023-04-16T01:20:59.598Z,541.47
2023-04-16T01:21:10.601Z,541.50
2023-04-16T01:21:21.596Z,541.47
2023-04-16T01:21:33.573Z,541.48
2023-04-16T01:21:44.565Z,541.50
2023-04-16T01:21:55.566Z,541.57
2023-04-16T01:22:06.568Z,541.77
2023-04-16T01:22:17.584Z,541.66
2023-04-16T01:22:28.599Z,541.62
2023-04-16T01:22:39.602Z,541.60
2023-04-16T01:22:50.592Z,541.55
2023-04-16T01:23:01.591Z,541.56
2023-04-16T01:23:12.612Z,541.63
2023-04-16T01:23:24.597Z,541.53
2023-04-16T01:23:35.584Z,541.51
2023-04-16T01:23:46.563Z,541.47
2023-04-16T01:23:57.560Z,541.52
2023-04-16T01:24:08.538Z,541.47
2023-04-16T01:24:19.550Z,541.45
2023-04-16T01:24:30.638Z,541.43
2023-04-16T01:24:42.602Z,541.41
2023-04-16T01:24:53.588Z,541.35
2023-04-16T01:25:04.592Z,541.34
2023-04-16T01:25:16.637Z,541.37
2023-04-16T01:25:28.593Z,541.38
2023-04-16T01:25:39.578Z,541.34
2023-04-16T01:25:50.597Z,541.28
2023-04-16T01:26:01.611Z,541.17
2023-04-16T01:26:12.609Z,541.11
2023-04-16T01:26:24.616Z,541.13
2023-04-16T01:26:35.599Z,541.17
2023-04-16T01:26:46.592Z,541.15
2023-04-16T01:26:57.590Z,541.17
2023-04-16T01:27:08.586Z,541.15
2023-04-16T01:27:19.594Z,541.08
2023-04-16T01:27:30.591Z,541.00
2023-04-16T01:27:41.597Z,541.01
2023-04-16T01:27:52.592Z,541.07
2023-04-16T01:28:03.585Z,541.04
2023-04-16T01:28:14.595Z,540.99
2023-04-16T01:28:25.604Z,540.99
2023-04-16T01:28:36.637Z,540.98
2023-04-16T01:28:48.590Z,540.93
2023-04-16T01:28:59.601Z,540.96
2023-04-16T01:29:10.830Z,540.96
2023-04-16T01:29:21.647Z,540.99
2023-04-16T01:29:33.664Z,541.01
2023-04-16T01:29:45.633Z,540.91
2023-04-16T01:29:57.607Z,540.87
2023-04-16T01:30:08.606Z,540.89
2023-04-16T01:30:20.581Z,541.02
2023-04-16T01:30:31.599Z,540.96
2023-04-16T01:30:42.594Z,540.99
2023-04-16T01:30:54.594Z,541.06
2023-04-16T01:31:05.651Z,540.96
2023-04-16T01:31:16.588Z,540.94
2023-04-16T01:31:27.650Z,540.82
2023-04-16T01:31:39.665Z,540.83
2023-04-16T01:31:50.649Z,540.82
2023-04-16T01:32:02.581Z,540.74
2023-04-16T01:32:13.582Z,540.67
2023-04-16T01:32:24.624Z,540.68
2023-04-16T01:32:36.648Z,540.67
2023-04-16T01:32:47.597Z,540.68
2023-04-16T01:32:58.623Z,540.59
2023-04-16T01:33:10.603Z,540.59
2023-04-16T01:33:21.605Z,540.67
2023-04-16T01:33:32.581Z,540.57
2023-04-16T01:33:43.588Z,540.63
2023-04-16T01:33:54.597Z,540.65
2023-04-16T01:34:05.594Z,540.56
2023-04-16T01:34:16.582Z,540.60
2023-04-16T01:34:27.588Z,540.77
2023-04-16T01:34:38.587Z,540.56
2023-04-16T01:34:49.642Z,540.66
2023-04-16T01:35:01.616Z,540.68
2023-04-16T01:35:12.617Z,540.54
2023-04-16T01:35:23.622Z,540.54
2023-04-16T01:35:35.586Z,540.48
2023-04-16T01:35:46.598Z,540.43
2023-04-16T01:35:57.605Z,540.49
2023-04-16T01:36:08.621Z,540.54
2023-04-16T01:36:19.609Z,540.54
2023-04-16T01:36:30.608Z,540.50
2023-04-16T01:36:42.612Z,540.44
2023-04-16T01:36:53.614Z,540.65
2023-04-16T01:37:04.610Z,540.66
2023-04-16T01:37:16.587Z,540.48
2023-04-16T01:37:27.592Z,540.49
2023-04-16T01:37:38.603Z,540.57
2023-04-16T01:37:49.608Z,540.56
2023-04-16T01:38:01.587Z,540.53
2023-04-16T01:38:12.589Z,540.55
2023-04-16T01:38:23.592Z,540.56
2023-04-16T01:38:34.608Z,540.58
2023-04-16T01:38:46.581Z,540.51
2023-04-16T01:38:58.590Z,540.40
2023-04-16T01:39:09.716Z,540.42
2023-04-16T01:39:20.577Z,540.47
2023-04-16T01:39:31.574Z,540.43
2023-04-16T01:39:42.581Z,540.40
2023-04-16T01:39:53.582Z,540.34
2023-04-16T01:40:04.665Z,540.37
2023-04-16T01:40:15.558Z,540.36
2023-04-16T01:40:26.603Z,540.39
2023-04-16T01:40:37.617Z,540.32
2023-04-16T01:40:49.601Z,540.31
2023-04-16T01:41:00.618Z,540.31
2023-04-16T01:41:11.607Z,540.33
2023-04-16T01:41:22.599Z,540.29
2023-04-16T01:41:33.585Z,540.31
2023-04-16T01:41:45.567Z,540.34
2023-04-16T01:41:56.579Z,540.38
2023-04-16T01:42:07.588Z,540.39
2023-04-16T01:42:18.582Z,540.32
2023-04-16T01:42:29.586Z,540.36
2023-04-16T01:42:40.576Z,540.43
2023-04-16T01:42:51.580Z,540.44
2023-04-16T01:43:02.550Z,540.48
2023-04-16T01:43:13.560Z,540.52
2023-04-16T01:43:24.682Z,540.43
2023-04-16T01:43:38.469Z,540.27
2023-04-16T01:43:48.644Z,540.34
2023-04-16T01:44:00.594Z,540.55
2023-04-16T01:44:12.589Z,540.49
2023-04-16T01:44:23.566Z,540.55
2023-04-16T01:44:34.581Z,540.63
2023-04-16T01:44:45.571Z,540.60
2023-04-16T01:44:56.593Z,540.69
2023-04-16T01:45:07.587Z,540.62
2023-04-16T01:45:18.610Z,540.52
2023-04-16T01:45:30.570Z,540.49
2023-04-16T01:45:41.567Z,540.60
2023-04-16T01:45:52.564Z,540.62
2023-04-16T01:46:03.561Z,540.71
2023-04-16T01:46:14.609Z,540.82
2023-04-16T01:46:25.616Z,540.67
2023-04-16T01:46:37.710Z,540.65
2023-04-16T01:46:48.689Z,540.70
2023-04-16T01:46:59.624Z,540.84
2023-04-16T01:47:11.591Z,540.71
2023-04-16T01:47:22.651Z,540.76
2023-04-16T01:47:33.677Z,540.73
2023-04-16T01:47:45.627Z,540.74
2023-04-16T01:47:57.654Z,540.56
2023-04-16T01:48:09.616Z,540.66
2023-04-16T01:48:20.619Z,540.57
2023-04-16T01:48:32.621Z,540.67
2023-04-16T01:48:43.605Z,540.62
2023-04-16T01:48:54.599Z,540.64
2023-04-16T01:49:05.604Z,540.67
2023-04-16T01:49:16.601Z,540.68
2023-04-16T01:49:27.583Z,540.71
2023-04-16T01:49:38.579Z,540.69
2023-04-16T01:49:49.577Z,540.67
2023-04-16T01:50:00.572Z,540.61
2023-04-16T01:50:11.556Z,540.62
2023-04-16T01:50:22.651Z,540.74
2023-04-16T01:50:34.617Z,540.51
2023-04-16T01:50:45.593Z,540.49
2023-04-16T01:50:56.589Z,540.56
2023-04-16T01:51:07.601Z,540.71
2023-04-16T01:51:18.605Z,540.75
2023-04-16T01:51:29.586Z,540.67
2023-04-16T01:51:40.591Z,540.66
2023-04-16T01:51:51.647Z,540.68
2023-04-16T01:52:02.540Z,540.67
2023-04-16T01:52:13.635Z,540.61
2023-04-16T01:52:25.588Z,540.65
2023-04-16T01:52:37.569Z,540.65
2023-04-16T01:52:48.575Z,540.73
2023-04-16T01:52:59.545Z,540.68
2023-04-16T01:53:10.553Z,540.68
2023-04-16T01:53:21.568Z,540.69
2023-04-16T01:53:32.551Z,540.69
2023-04-16T01:53:43.623Z,540.66
2023-04-16T01:53:55.588Z,540.68
2023-04-16T01:54:06.590Z,540.65
2023-04-16T01:54:17.608Z,540.66
2023-04-16T01:54:28.600Z,540.69
2023-04-16T01:54:39.606Z,540.77
2023-04-16T01:54:50.602Z,540.61
2023-04-16T01:55:01.674Z,540.56
2023-04-16T01:55:13.600Z,540.99
2023-04-16T01:55:24.598Z,540.80
2023-04-16T01:55:35.609Z,540.94
2023-04-16T01:55:46.610Z,540.71
2023-04-16T01:55:57.611Z,540.85
2023-04-16T01:56:09.584Z,540.83
2023-04-16T01:56:20.574Z,540.83
2023-04-16T01:56:31.585Z,540.83
2023-04-16T01:56:42.588Z,540.74
2023-04-16T01:56:53.583Z,540.69
2023-04-16T01:57:04.597Z,540.81
2023-04-16T01:57:15.595Z,540.70
2023-04-16T01:57:26.597Z,540.81
2023-04-16T01:57:37.597Z,540.82
2023-04-16T01:57:48.621Z,540.70
2023-04-16T01:58:00.573Z,540.96
2023-04-16T01:58:11.579Z,540.87
2023-04-16T01:58:22.574Z,540.69
2023-04-16T01:58:33.583Z,540.77
2023-04-16T01:58:44.572Z,540.83
2023-04-16T01:58:55.566Z,540.81
2023-04-16T01:59:06.647Z,540.71
2023-04-16T01:59:17.578Z,540.67
2023-04-16T01:59:28.548Z,540.69
2023-04-16T01:59:39.551Z,540.67
2023-04-16T01:59:50.653Z,540.62
2023-04-16T02:00:02.624Z,540.59
2023-04-16T02:00:13.608Z,540.76
2023-04-16T02:00:24.571Z,540.74
2023-04-16T02:00:35.587Z,540.67
2023-04-16T02:00:46.599Z,540.62
2023-04-16T02:00:57.690Z,540.64
2023-04-16T02:01:08.709Z,540.64
2023-04-16T02:01:20.682Z,540.63
2023-04-16T02:01:31.817Z,540.64
2023-04-16T02:01:43.707Z,540.84
2023-04-16T02:01:54.692Z,540.85
2023-04-16T02:02:06.668Z,540.67
2023-04-16T02:02:18.652Z,540.57
2023-04-16T02:02:30.714Z,540.59
2023-04-16T02:02:42.873Z,540.65
2023-04-16T02:02:54.733Z,540.65
2023-04-16T02:03:06.657Z,540.65
2023-04-16T02:03:18.810Z,540.64
2023-04-16T02:03:29.783Z,540.71
2023-04-16T02:03:40.808Z,540.70
2023-04-16T02:03:52.827Z,540.66
2023-04-16T02:04:04.627Z,540.52
2023-04-16T02:04:16.650Z,540.43
2023-04-16T02:04:28.622Z,540.58
2023-04-16T02:04:40.601Z,540.79
2023-04-16T02:04:51.582Z,540.65
2023-04-16T02:05:02.592Z,540.69
2023-04-16T02:05:13.585Z,540.69
2023-04-16T02:05:24.601Z,540.70
2023-04-16T02:05:35.596Z,540.50
2023-04-16T02:05:46.594Z,540.43
2023-04-16T02:05:57.587Z,540.66
2023-04-16T02:06:08.583Z,540.64
2023-04-16T02:06:19.591Z,540.57
2023-04-16T02:06:30.590Z,540.49
2023-04-16T02:06:41.602Z,540.48
2023-04-16T02:06:52.603Z,540.47
2023-04-16T02:07:03.608Z,540.45
2023-04-16T02:07:14.605Z,540.46
2023-04-16T02:07:25.593Z,540.48
2023-04-16T02:07:37.584Z,540.43
2023-04-16T02:07:48.586Z,540.39
2023-04-16T02:07:59.593Z,540.34
2023-04-16T02:08:10.581Z,540.41
2023-04-16T02:08:21.592Z,540.44
2023-04-16T02:08:32.587Z,540.51
2023-04-16T02:08:43.590Z,540.53
2023-04-16T02:08:54.597Z,540.46
2023-04-16T02:09:05.602Z,540.39
2023-04-16T02:09:16.608Z,540.37
2023-04-16T02:09:27.630Z,540.29
2023-04-16T02:09:39.617Z,540.38
2023-04-16T02:09:51.585Z,540.37
2023-04-16T02:10:02.580Z,540.28
2023-04-16T02:10:13.637Z,540.31
2023-04-16T02:10:25.588Z,540.34
2023-04-16T02:10:36.568Z,540.23
2023-04-16T02:10:47.573Z,540.21
2023-04-16T02:10:58.564Z,540.26
2023-04-16T02:11:09.575Z,540.27
2023-04-16T02:11:20.582Z,540.22
2023-04-16T02:11:31.578Z,540.19
2023-04-16T02:11:42.571Z,540.30
2023-04-16T02:11:53.595Z,540.27
2023-04-16T02:12:04.619Z,540.26
2023-04-16T02:12:15.608Z,540.27
2023-04-16T02:12:27.585Z,540.24
2023-04-16T02:12:38.581Z,540.21
2023-04-16T02:12:49.578Z,540.40
2023-04-16T02:13:00.584Z,540.24
2023-04-16T02:13:11.571Z,540.20
2023-04-16T02:13:22.627Z,540.25
2023-04-16T02:13:34.575Z,540.26
2023-04-16T02:13:45.610Z,540.15
2023-04-16T02:13:56.612Z,540.20
2023-04-16T02:14:07.589Z,540.23
2023-04-16T02:14:18.594Z,540.16
2023-04-16T02:14:29.614Z,540.15
2023-04-16T02:14:40.610Z,540.14
2023-04-16T02:14:52.576Z,540.06
2023-04-16T02:15:03.572Z,540.14
2023-04-16T02:15:14.569Z,540.10
2023-04-16T02:15:25.601Z,540.09
2023-04-16T02:15:36.594Z,540.10
2023-04-16T02:15:47.610Z,540.10
2023-04-16T02:15:58.645Z,540.08
2023-04-16T02:16:10.615Z,539.96
2023-04-16T02:16:21.627Z,540.02
2023-04-16T02:16:33.640Z,539.95
2023-04-16T02:16:45.670Z,539.98
2023-04-16T02:16:56.728Z,539.88
2023-04-16T02:17:08.605Z,539.83
2023-04-16T02:17:20.647Z,539.91
2023-04-16T02:17:31.585Z,539.85
2023-04-16T02:17:42.604Z,539.98
2023-04-16T02:17:53.647Z,539.88
2023-04-16T02:18:04.735Z,539.74
2023-04-16T02:18:16.613Z,539.76
2023-04-16T02:18:28.577Z,540.05
2023-04-16T02:18:39.581Z,540.07
2023-04-16T02:18:50.581Z,539.74
2023-04-16T02:19:01.601Z,539.75
2023-04-16T02:19:12.603Z,539.55
2023-04-16T02:19:23.597Z,539.87
2023-04-16T02:19:35.583Z,540.04
2023-04-16T02:19:46.584Z,539.87
2023-04-16T02:19:57.578Z,539.83